Portada
METAR-TAF:

METAR-TAF

Aeropuertos :

Jerez de la Frontera, España

Aeropuerto de Jerez

latitud: 36-45N, longitud: 006-04W, altitud: 27 m

Observación

El informe se hizo hace 23 minutos, a las 11:00 UTC
Viento 1 kt con dirección variable
Temperatura 21°C
Humedad 35%
Presión 1020 hPa
Visibilidad 10 km o más
sin nubes por debajo de 1500 m y sin presencia de cumulonimbus.

METAR: LEJR 231100Z VRB01KT CAVOK 21/05 Q1020

Hora: 12:23 (11:23 UTC)

Pronóstico

El informe se hizo hace 6 horas y 23 minutos, a las 05:00 UTC
Pronóstico válido del 23 a las 06 UTC al 24 a las 06 UTC
Viento 2 kt con dirección variable
Visibilidad 10 km o más
sin nubes por debajo de 1500 m y sin presencia de cumulonimbus.
Temporalmente
del 23 a las 12 UTC al 23 a las 17 UTC
Viento 10 kt del sur

TAF: LEJR 230500Z 2306/2406 VRB02KT CAVOK TX23/2315Z TN06/2306Z TEMPO 2312/2317 19010KT

Observaciones y pronósticos meteorológicos de más de 4000 aeropuertos (mensajes METAR y TAF).

Los puntos amarillos y rojos representan las estaciones disponibles.

Ponga el ratón en el punto deseado para ver el nombre de la estación.

Haga clic para ver las observaciones y los pronósticos meteorológicos.

Para cambiar el mapa : haga clic en los botones verdes con una cruz de color negro para hacer un zoom, en el botón verde con un guión para alejar o en las flechas verdes para mapas adyacentes.


METAR-TAF: